UKKK/IEV METAR and TAF weather

Enter ICAO airport designator
Station Type Date Time Source
UKKK METAR 2021/08/05 03:00 UTC NOAA

UKKK 050300Z 00000MPS CAVOK 17/16 Q1014 R26/190060 NOSIG


Station Type Date Time Source
UKKK Decoded METAR 2021/08/05 03:00 UTC NOAA

Kyiv, Ukraine (UKKK) 50-24N 030-34E 167M
Aug 04, 2021 - 11:00 PM EDT / 2021.08.05 0300 UTC
Wind: Calm:0
Visibility: greater than 7 mile(s):0
Temperature: 62 F (17 C)
Dew Point: 60 F (16 C)
Relative Humidity: 93%
Pressure (altimeter): 29.94 in. Hg (1014 hPa)
ob: UKKK 050300Z 00000MPS CAVOK 17/16 Q1014 R26/190060 NOSIG
cycle: 3

Station Type Date Time Source
UKKK TAF 2021/08/04 18:09 UTC NOAA

TAF TAF UKKK 041704Z 0418/0518 16003G08MPS 9999 BKN025 TX27/0513Z TN14/0502Z
TEMPO 0418/0506 VRB09G18MPS 0400 +TSRA SQ BKN004 BKN020CB
TEMPO 0506/0518 VRB11G21MPS 0500 +TSRAGR SQ BKN005 BKN025CB

Example: see airport list